createdAt,value
2018-01-04T00:38:39.782Z,15.95
2018-01-04T00:55:52.749Z,21.30
2018-01-04T01:01:33.888Z,25.67
2018-01-04T01:10:22.786Z,25.10
2018-01-04T01:21:36.834Z,23.23
2018-01-04T01:47:52.067Z,24.30
2018-01-04T03:12:23.411Z,21.77
2018-01-04T03:20:51.736Z,18.65
2018-01-04T03:29:13.757Z,12.60
2018-01-04T03:31:57.372Z,22.92
2018-01-04T04:56:15.744Z,25.80
2018-01-04T05:10:16.487Z,14.90
2018-01-04T06:24:35.733Z,27.83
2018-01-04T06:27:29.964Z,18.83
2018-01-04T06:30:05.397Z,20.52
2018-01-04T06:35:34.725Z,12.75
2018-01-04T06:44:22.004Z,23.87
2018-01-04T08:13:56.942Z,28.00
2018-01-04T08:37:23.317Z,17.75
2018-01-04T08:42:55.311Z,13.10
2018-01-04T08:45:27.631Z,18.25
2018-01-04T09:45:11.897Z,12.23
2018-01-04T09:47:51.223Z,16.50
2018-01-04T09:50:23.118Z,11.80
2018-01-04T09:52:59.343Z,7.80
2018-01-04T09:55:37.030Z,10.00
2018-01-04T10:01:02.281Z,4.97
2018-01-04T10:18:50.233Z,3.62
2018-01-04T10:21:18.236Z,2.85
2018-01-04T10:23:46.323Z,4.93
2018-01-04T10:26:14.574Z,4.80
2018-01-04T10:28:42.730Z,6.95
2018-01-04T10:31:14.114Z,2.60
2018-01-04T10:33:44.703Z,3.87
2018-01-04T10:36:12.971Z,2.30
2018-01-04T10:38:42.329Z,4.15
2018-01-04T10:41:10.621Z,4.12
2018-01-04T10:43:40.356Z,3.67
2018-01-04T10:46:08.996Z,6.18
2018-01-04T10:48:38.206Z,4.55
2018-01-04T10:51:06.477Z,2.05
2018-01-04T10:53:34.674Z,2.00
2018-01-04T10:56:02.906Z,2.67
2018-01-04T10:58:31.303Z,1.92
2018-01-04T11:00:59.639Z,4.37
2018-01-04T11:03:30.667Z,2.47
2018-01-04T11:05:59.698Z,2.75
2018-01-04T11:08:27.975Z,3.70
2018-01-04T11:10:56.097Z,3.62
2018-01-04T11:13:24.267Z,5.03
2018-01-04T11:15:52.399Z,1.70
2018-01-04T11:18:21.290Z,3.03
2018-01-04T11:20:49.506Z,2.15
2018-01-04T11:23:17.535Z,2.15
2018-01-04T11:25:46.407Z,1.45
2018-01-04T11:28:14.449Z,2.70
2018-01-04T11:30:42.576Z,1.52
2018-01-04T11:33:10.611Z,1.92
2018-01-04T11:35:40.316Z,4.53
2018-01-04T11:38:08.427Z,2.05
2018-01-04T11:40:37.212Z,3.25
2018-01-04T11:43:05.281Z,3.95
2018-01-04T11:45:33.318Z,3.40
2018-01-04T11:48:01.266Z,2.40
2018-01-04T11:50:29.261Z,2.92
2018-01-04T11:52:57.228Z,3.15
2018-01-04T11:55:25.226Z,3.37
2018-01-04T11:57:53.165Z,3.03
2018-01-04T12:00:21.155Z,6.87
2018-01-04T12:02:49.108Z,1.60
2018-01-04T12:05:17.118Z,1.50
2018-01-04T12:07:45.087Z,2.03
2018-01-04T12:10:13.154Z,2.20
2018-01-04T12:12:41.100Z,4.10
2018-01-04T12:15:09.223Z,2.90
2018-01-04T12:17:37.955Z,2.12
2018-01-04T12:20:06.000Z,1.40
2018-01-04T12:22:33.966Z,1.90
2018-01-04T12:25:01.986Z,1.20
2018-01-04T12:27:31.148Z,1.83
2018-01-04T12:29:59.096Z,2.37
2018-01-04T12:32:27.105Z,2.17
2018-01-04T12:34:55.034Z,3.00
2018-01-04T12:37:23.908Z,2.15
2018-01-04T12:39:51.839Z,2.30
2018-01-04T12:42:19.868Z,3.10
2018-01-04T12:44:48.566Z,2.22
2018-01-04T12:47:16.571Z,3.15
2018-01-04T12:49:44.526Z,2.12
2018-01-04T12:52:12.528Z,2.00
2018-01-04T12:54:40.459Z,2.30
2018-01-04T12:57:12.053Z,3.12
2018-01-04T12:59:39.993Z,1.52
2018-01-04T13:02:08.003Z,1.90
2018-01-04T13:04:35.922Z,2.03
2018-01-04T13:07:03.918Z,2.08
2018-01-04T13:09:31.855Z,2.33
2018-01-04T13:11:59.846Z,2.60
2018-01-04T13:14:27.785Z,1.92
2018-01-04T13:16:55.743Z,2.00
2018-01-04T13:19:23.784Z,2.62
2018-01-04T13:21:51.796Z,2.40
2018-01-04T13:24:20.517Z,1.70
2018-01-04T13:26:48.627Z,2.70
2018-01-04T13:29:16.577Z,1.87
2018-01-04T13:31:44.507Z,2.05
2018-01-04T13:34:12.504Z,2.95
2018-01-04T13:36:40.476Z,1.70
2018-01-04T13:39:08.492Z,2.37
2018-01-04T13:41:36.427Z,2.70
2018-01-04T13:44:04.601Z,2.12
2018-01-04T13:46:32.609Z,1.20
2018-01-04T13:49:00.625Z,1.15
2018-01-04T13:51:29.295Z,1.00
2018-01-04T13:54:02.401Z,1.33
2018-01-04T13:56:31.752Z,1.27
2018-01-04T13:58:59.868Z,1.20
2018-01-04T14:01:27.900Z,1.50
2018-01-04T14:03:56.622Z,1.10
2018-01-04T14:06:25.421Z,1.85
2018-01-04T14:08:54.275Z,2.00
2018-01-04T14:11:23.108Z,2.22
2018-01-04T14:13:51.215Z,1.42
2018-01-04T14:16:19.273Z,2.00
2018-01-04T14:18:47.377Z,1.67
2018-01-04T14:21:18.753Z,1.45
2018-01-04T14:23:46.972Z,2.00
2018-01-04T14:26:15.541Z,1.58
2018-01-04T14:28:43.693Z,1.37
2018-01-04T14:31:11.976Z,4.78
2018-01-04T14:33:40.217Z,1.20
2018-01-04T14:36:08.502Z,1.00
2018-01-04T14:38:36.826Z,1.30
2018-01-04T14:41:04.998Z,1.73
2018-01-04T14:43:34.027Z,1.25
2018-01-04T14:46:02.358Z,1.15
2018-01-04T14:48:30.578Z,1.55
2018-01-04T14:50:58.763Z,1.10
2018-01-04T14:53:26.903Z,1.00
2018-01-04T14:55:59.776Z,1.35
2018-01-04T14:58:28.027Z,1.50
2018-01-04T15:00:56.271Z,1.90
2018-01-04T15:03:25.236Z,1.77
2018-01-04T15:05:53.407Z,1.95
2018-01-04T15:08:21.618Z,2.40
2018-01-04T15:10:50.964Z,2.00
2018-01-04T15:13:19.139Z,1.70
2018-01-04T15:15:48.085Z,2.03
2018-01-04T15:18:16.229Z,2.47
2018-01-04T15:20:44.499Z,2.00
2018-01-04T15:23:12.577Z,2.22
2018-01-04T15:25:40.799Z,3.28
2018-01-04T15:28:09.754Z,2.78
2018-01-04T15:30:38.150Z,2.30
2018-01-04T15:33:07.338Z,2.20
2018-01-04T15:35:35.481Z,2.10
2018-01-04T15:38:03.678Z,1.73
2018-01-04T15:40:31.837Z,1.60
2018-01-04T15:43:00.045Z,2.10
2018-01-04T15:45:28.188Z,1.70
2018-01-04T15:47:56.394Z,1.50
2018-01-04T15:50:24.526Z,1.60
2018-01-04T15:52:52.815Z,1.87
2018-01-04T15:55:20.965Z,1.52
2018-01-04T15:57:49.372Z,2.25
2018-01-04T16:00:17.542Z,2.22
2018-01-04T16:02:45.726Z,2.05
2018-01-04T16:05:13.837Z,2.47
2018-01-04T16:07:42.004Z,2.03
2018-01-04T16:10:10.149Z,1.73
2018-01-04T16:12:38.422Z,1.50
2018-01-04T16:15:06.560Z,2.92
2018-01-04T16:17:34.710Z,2.62
2018-01-04T16:20:02.819Z,2.30
2018-01-04T16:22:30.962Z,2.25
2018-01-04T16:24:59.113Z,2.40
2018-01-04T16:27:30.804Z,2.70
2018-01-04T16:29:58.948Z,3.58
2018-01-04T16:32:27.238Z,3.87
2018-01-04T16:34:55.494Z,2.90
2018-01-04T16:37:23.829Z,2.12
2018-01-04T16:39:52.779Z,2.75
2018-01-04T16:42:20.995Z,2.75
2018-01-04T16:44:49.133Z,2.47
2018-01-04T16:47:17.250Z,6.18
2018-01-04T16:49:45.485Z,2.37
2018-01-04T16:52:13.613Z,4.90
2018-01-04T16:54:41.850Z,6.20
2018-01-04T16:57:14.479Z,4.60
2018-01-04T16:59:42.700Z,4.87
2018-01-04T17:02:10.970Z,6.55
2018-01-04T17:04:39.193Z,4.80
2018-01-04T17:07:07.371Z,6.03
2018-01-04T17:09:35.768Z,9.88
2018-01-04T17:12:06.933Z,5.60
2018-01-04T17:14:35.944Z,4.37
2018-01-04T17:17:04.531Z,5.93
2018-01-04T17:19:39.013Z,4.37
2018-01-04T17:22:11.495Z,4.10
2018-01-04T17:24:39.884Z,4.75
2018-01-04T17:27:08.650Z,7.55
2018-01-04T17:29:36.759Z,5.68
2018-01-04T17:32:04.850Z,3.60
2018-01-04T17:34:33.796Z,4.28
2018-01-04T17:37:06.937Z,7.43
2018-01-04T17:39:35.546Z,5.47
2018-01-04T17:42:08.991Z,6.50
2018-01-04T17:44:37.752Z,6.82
2018-01-04T17:47:06.358Z,4.43
2018-01-04T17:49:36.559Z,4.93
2018-01-04T17:52:06.028Z,5.37
2018-01-04T17:54:36.797Z,3.08
2018-01-04T17:57:05.817Z,5.60
2018-01-04T17:59:34.025Z,2.70
2018-01-04T18:02:02.598Z,8.93
2018-01-04T18:04:33.427Z,5.28
2018-01-04T18:07:05.708Z,7.35
2018-01-04T18:09:35.700Z,13.32
2018-01-04T18:12:04.741Z,14.63
2018-01-04T18:14:36.015Z,8.10
2018-01-04T18:17:05.328Z,10.40
2018-01-04T18:19:33.416Z,16.95
2018-01-04T18:22:01.667Z,8.93
2018-01-04T18:24:31.340Z,19.90
2018-01-04T18:27:03.089Z,7.20
2018-01-04T18:29:33.375Z,8.70
2018-01-04T18:32:02.858Z,9.05
2018-01-04T18:34:34.446Z,7.20
2018-01-04T18:37:05.398Z,14.18
2018-01-04T18:39:36.938Z,10.18
2018-01-04T18:42:05.802Z,13.60
2018-01-04T18:44:34.127Z,17.08
2018-01-04T18:47:03.223Z,24.60
2018-01-04T18:49:31.615Z,9.88
2018-01-04T18:52:02.295Z,13.15
2018-01-04T18:54:30.376Z,13.55
2018-01-04T18:56:58.691Z,10.30
2018-01-04T18:59:27.693Z,13.13
2018-01-04T19:01:56.675Z,10.73
2018-01-04T19:04:24.734Z,11.75
2018-01-04T19:06:54.235Z,15.65
2018-01-04T19:09:23.470Z,22.62
2018-01-04T19:11:51.560Z,11.98
2018-01-04T19:14:20.268Z,11.52
2018-01-04T19:16:48.333Z,13.07
2018-01-04T19:19:16.386Z,18.65
2018-01-04T19:21:45.115Z,18.87
2018-01-04T19:24:13.165Z,18.10
2018-01-04T19:26:43.713Z,27.27
2018-01-04T19:29:11.786Z,29.95
2018-01-04T19:31:39.811Z,23.48
2018-01-04T19:34:07.897Z,19.15
2018-01-04T19:36:36.352Z,25.25
2018-01-04T19:39:04.719Z,16.52
2018-01-04T19:41:32.768Z,22.40
2018-01-04T19:44:06.712Z,19.02
2018-01-04T19:46:34.751Z,24.00
2018-01-04T19:49:02.887Z,22.23
2018-01-04T19:51:30.871Z,21.98
2018-01-04T19:54:00.281Z,27.77
2018-01-04T19:56:28.680Z,17.45
2018-01-04T19:58:57.659Z,19.33
2018-01-04T20:01:25.649Z,18.48
2018-01-04T20:03:53.676Z,16.70
2018-01-04T20:06:23.686Z,23.30
2018-01-04T20:08:51.776Z,16.98
2018-01-04T20:11:19.744Z,20.58
2018-01-04T20:13:47.746Z,21.67
2018-01-04T20:16:15.810Z,19.95
2018-01-04T20:18:43.951Z,24.15
2018-01-04T20:21:12.070Z,25.65
2018-01-04T20:23:40.128Z,15.88
2018-01-04T20:26:08.616Z,19.10
2018-01-04T20:31:12.780Z,21.12
2018-01-04T20:33:47.336Z,24.33
2018-01-04T20:36:15.581Z,19.30
2018-01-04T20:38:43.706Z,20.27
2018-01-04T20:41:11.755Z,17.77
2018-01-04T20:43:39.809Z,26.52
2018-01-04T20:46:07.900Z,18.73
2018-01-04T20:48:35.905Z,23.83
2018-01-04T20:51:04.067Z,17.87
2018-01-04T20:53:32.067Z,22.20
2018-01-04T20:56:00.008Z,17.83
2018-01-04T20:58:29.721Z,18.27
2018-01-04T21:00:58.883Z,15.57
2018-01-04T21:03:29.035Z,16.52
2018-01-04T21:05:57.849Z,11.85
2018-01-04T21:11:27.761Z,17.25
2018-01-04T21:13:55.796Z,19.05
2018-01-04T21:16:25.885Z,16.30
2018-01-04T21:18:54.803Z,22.40
2018-01-04T21:21:22.858Z,16.30
2018-01-04T21:23:50.857Z,18.98
2018-01-04T21:26:18.933Z,12.93
2018-01-04T21:28:46.946Z,12.82
2018-01-04T21:31:15.622Z,22.08
2018-01-04T21:33:44.291Z,17.23
2018-01-04T21:36:17.217Z,12.07
2018-01-04T21:38:45.256Z,11.93
2018-01-04T21:41:13.257Z,16.92
2018-01-04T21:43:41.274Z,11.90
2018-01-04T21:46:09.576Z,15.23
2018-01-04T21:48:37.528Z,11.27
2018-01-04T21:51:05.608Z,8.13
2018-01-04T21:53:33.534Z,16.00
2018-01-04T21:58:39.042Z,7.07
2018-01-04T22:01:07.134Z,26.35
2018-01-04T22:03:35.855Z,9.20
2018-01-04T22:06:04.337Z,7.57
2018-01-04T22:08:32.311Z,6.90
2018-01-04T22:11:00.405Z,12.90
2018-01-04T22:13:28.409Z,16.62
2018-01-04T22:15:57.570Z,9.45
2018-01-04T22:18:25.573Z,13.43
2018-01-04T22:20:55.403Z,6.85
2018-01-04T22:23:24.309Z,10.02
2018-01-04T22:25:52.382Z,11.02
2018-01-04T22:28:21.593Z,11.82
2018-01-04T22:30:49.560Z,15.40
2018-01-04T22:33:18.468Z,18.37
2018-01-04T22:35:46.488Z,24.92
2018-01-04T22:38:14.681Z,8.93
2018-01-04T22:40:42.742Z,15.15
2018-01-04T22:43:14.577Z,9.52
2018-01-04T22:45:45.115Z,13.23
2018-01-04T22:48:13.138Z,18.20
2018-01-04T22:50:41.138Z,9.85
2018-01-04T22:53:09.995Z,12.57
2018-01-04T22:55:38.312Z,9.60
2018-01-04T22:58:06.312Z,9.50
2018-01-04T23:14:17.538Z,13.40
2018-01-04T23:16:45.549Z,10.68
2018-01-04T23:19:13.921Z,10.68
2018-01-04T23:21:41.968Z,6.50
2018-01-04T23:24:09.980Z,5.85
2018-01-04T23:26:38.007Z,11.60
2018-01-04T23:29:06.114Z,9.95
2018-01-04T23:31:34.617Z,8.60
2018-01-04T23:34:03.896Z,15.05
2018-01-04T23:36:31.850Z,15.25
2018-01-04T23:38:59.875Z,7.78
2018-01-04T23:41:28.034Z,12.05
2018-01-04T23:43:57.595Z,12.00
2018-01-04T23:46:51.216Z,9.00
2018-01-04T23:49:19.963Z,4.97
2018-01-04T23:51:48.036Z,9.40
2018-01-04T23:54:16.202Z,9.32
2018-01-04T23:56:44.356Z,11.30
2018-01-04T23:59:12.549Z,8.73
